Time;durP1;ratioP1;P1;durP2;ratioP2;P2;SDS_P1;SDS_P2;PMS_P1;PMS_P2;Temp;Humidity;BMP_temperature;BMP_pressure;BME280_temperature;BME280_humidity;BME280_pressure;Samples;Min_cycle;Max_cycle;Signal;HPM_P1;HPM_P2
2021/04/11 00:00:45;;;;;;;14.50;12.13;;;;;;;9.54;89.54;99749.44;5075358;28;20109;-84
2021/04/11 00:03:17;;;;;;;15.75;11.30;;;;;;;9.55;89.97;99746.72;5065285;28;20140;-84
2021/04/11 00:05:43;;;;;;;17.88;12.73;;;;;;;9.55;89.86;99748.50;5061775;28;20070;-85
2021/04/11 00:08:11;;;;;;;16.98;12.00;;;;;;;9.56;90.18;99729.94;5062045;28;20049;-84
2021/04/11 00:10:41;;;;;;;18.10;12.82;;;;;;;9.60;89.77;99730.63;5062791;28;21044;-84
2021/04/11 00:13:15;;;;;;;17.83;12.90;;;;;;;9.61;89.29;99727.03;5062779;28;20106;-84
2021/04/11 00:15:41;;;;;;;16.10;12.05;;;;;;;9.63;89.71;99723.38;5063528;28;20068;-85
2021/04/11 00:18:08;;;;;;;16.63;13.07;;;;;;;9.66;89.38;99731.13;5062652;28;20490;-84
2021/04/11 00:20:34;;;;;;;16.58;12.20;;;;;;;9.66;89.10;99725.84;5065655;28;20040;-83
2021/04/11 00:23:02;;;;;;;17.75;11.95;;;;;;;9.65;89.17;99728.56;5068093;28;20075;-84
2021/04/11 00:25:32;;;;;;;16.02;12.35;;;;;;;9.61;89.54;99724.38;5070013;28;20530;-83
2021/04/11 00:27:59;;;;;;;17.48;12.00;;;;;;;9.52;89.57;99711.66;5077371;28;20079;-83
2021/04/11 00:30:26;;;;;;;18.73;12.57;;;;;;;9.42;89.71;99706.88;5080495;28;20064;-83
2021/04/11 00:32:58;;;;;;;15.18;12.30;;;;;;;9.39;89.97;99716.75;5078922;28;20068;-83
2021/04/11 00:35:26;;;;;;;16.00;12.05;;;;;;;9.34;90.48;99703.78;5067636;28;20135;-83
2021/04/11 00:37:53;;;;;;;18.73;13.07;;;;;;;9.32;90.75;99718.84;5060067;28;20052;-83
2021/04/11 00:40:23;;;;;;;16.95;13.23;;;;;;;9.30;90.99;99711.94;5060315;28;20591;-83
2021/04/11 00:42:57;;;;;;;18.02;13.18;;;;;;;9.26;91.23;99708.63;5060368;28;20045;-83
2021/04/11 00:45:32;;;;;;;16.35;12.73;;;;;;;9.24;90.95;99705.22;5061184;28;20064;-83
2021/04/11 00:48:00;;;;;;;20.75;13.52;;;;;;;9.17;91.09;99689.75;5065528;28;20048;-83
2021/04/11 00:50:26;;;;;;;18.73;13.30;;;;;;;9.12;91.40;99687.38;5067933;28;20083;-83
2021/04/11 00:52:52;;;;;;;19.58;13.25;;;;;;;9.12;91.51;99697.94;5059549;28;21085;-83
2021/04/11 00:55:22;;;;;;;16.80;12.63;;;;;;;9.15;91.35;99703.03;5065997;28;20048;-83
2021/04/11 00:57:49;;;;;;;17.08;12.40;;;;;;;8.96;91.56;99675.91;5055593;28;20079;-83
2021/04/11 01:00:18;;;;;;;18.88;13.23;;;;;;;9.06;91.47;99693.81;5067150;28;20055;-83
2021/04/11 01:02:45;;;;;;;18.48;12.70;;;;;;;9.03;91.58;99698.38;5064685;28;20087;-84
2021/04/11 01:05:22;;;;;;;16.92;12.40;;;;;;;8.99;91.58;99694.19;5058309;28;20049;-83
2021/04/11 01:07:50;;;;;;;16.48;12.60;;;;;;;8.99;91.91;99687.13;5066988;28;20062;-83
2021/04/11 01:10:21;;;;;;;15.05;12.85;;;;;;;9.01;92.13;99684.41;5056129;28;20044;-83
2021/04/11 01:12:48;;;;;;;16.27;13.18;;;;;;;9.05;92.05;99681.53;5071699;28;20068;-83
2021/04/11 01:15:21;;;;;;;20.70;13.45;;;;;;;9.10;92.16;99681.31;5074519;28;20072;-82
2021/04/11 01:17:48;;;;;;;19.40;13.32;;;;;;;9.13;91.68;99689.91;5069992;28;20048;-83
2021/04/11 01:20:17;;;;;;;19.27;12.98;;;;;;;9.15;91.61;99688.03;5074652;28;20045;-83
2021/04/11 01:23:15;;;;;;;17.88;13.25;;;;;;;9.15;91.67;99688.03;5064907;28;20036;-84
2021/04/11 01:25:42;;;;;;;15.02;12.50;;;;;;;9.14;91.72;99682.84;5064241;28;20045;-83
2021/04/11 01:28:34;;;;;;;17.50;12.38;;;;;;;9.16;91.64;99683.59;5067445;28;20055;-83
2021/04/11 01:31:05;;;;;;;17.88;12.60;;;;;;;9.16;91.79;99680.97;5056662;28;20077;-84
2021/04/11 01:33:35;;;;;;;16.58;11.95;;;;;;;9.12;91.68;99674.16;5072620;28;20525;-83
2021/04/11 01:36:03;;;;;;;19.55;12.60;;;;;;;9.05;91.64;99655.13;5072671;28;20079;-83
2021/04/11 01:38:36;;;;;;;22.50;12.90;;;;;;;9.07;91.59;99657.69;5080188;28;20061;-84
2021/04/11 01:41:23;;;;;;;16.85;12.88;;;;;;;9.08;91.48;99654.97;5082484;28;20087;-83
2021/04/11 01:43:54;;;;;;;17.08;12.35;;;;;;;9.08;91.69;99667.31;5084477;28;20044;-83
2021/04/11 01:46:23;;;;;;;16.15;12.75;;;;;;;9.07;91.74;99666.47;5087835;28;20087;-83
2021/04/11 01:48:49;;;;;;;17.33;12.13;;;;;;;9.05;91.86;99659.56;5081695;28;20040;-84
2021/04/11 01:51:21;;;;;;;16.70;12.73;;;;;;;9.14;91.53;99670.47;5067770;28;20049;-84
2021/04/11 01:53:48;;;;;;;19.13;13.27;;;;;;;9.15;91.61;99666.06;5080735;28;20048;-83
2021/04/11 01:56:16;;;;;;;17.13;12.70;;;;;;;9.21;91.51;99664.88;5089705;28;20037;-83
2021/04/11 01:58:43;;;;;;;17.40;12.95;;;;;;;9.20;91.60;99666.69;5090212;28;20041;-83
2021/04/11 02:01:21;;;;;;;20.38;13.55;;;;;;;9.18;90.94;99660.63;5086878;28;20044;-83
2021/04/11 02:03:52;;;;;;;17.60;12.98;;;;;;;9.10;90.85;99658.41;5080948;28;20049;-83
2021/04/11 02:06:22;;;;;;;17.73;12.70;;;;;;;9.10;91.34;99652.25;5086334;28;20036;-83
2021/04/11 02:08:55;;;;;;;16.52;12.82;;;;;;;9.11;91.52;99648.69;5089712;28;20093;-83
2021/04/11 02:11:22;;;;;;;16.23;12.52;;;;;;;9.13;91.50;99644.16;5078938;28;20049;-83
2021/04/11 02:13:48;;;;;;;17.95;12.95;;;;;;;9.12;91.84;99639.81;5077266;28;20041;-83
2021/04/11 02:16:21;;;;;;;17.67;13.10;;;;;;;9.19;91.53;99643.84;5076711;28;20071;-83
2021/04/11 02:18:47;;;;;;;17.45;13.02;;;;;;;9.22;91.76;99643.69;5072383;28;20064;-83
2021/04/11 02:21:19;;;;;;;21.02;15.90;;;;;;;9.24;91.30;99644.44;5080427;28;20041;-83
2021/04/11 02:23:47;;;;;;;18.45;12.98;;;;;;;9.22;91.02;99640.19;5081278;28;20055;-84
2021/04/11 02:26:14;;;;;;;17.60;13.27;;;;;;;9.19;90.99;99635.06;5075667;28;20049;-83
2021/04/11 02:28:41;;;;;;;17.45;13.05;;;;;;;9.21;90.91;99641.97;5084261;28;20044;-83
2021/04/11 02:31:17;;;;;;;16.90;13.48;;;;;;;9.25;90.92;99645.31;5082378;28;20376;-83
2021/04/11 02:33:53;;;;;;;15.95;12.82;;;;;;;9.26;90.81;99629.38;5081610;28;20127;-83
2021/04/11 02:36:22;;;;;;;18.40;13.10;;;;;;;9.19;90.52;99625.34;5086843;28;20070;-83
2021/04/11 02:38:52;;;;;;;16.80;12.30;;;;;;;9.22;90.58;99635.75;5079973;28;20116;-83
2021/04/11 02:41:22;;;;;;;19.52;13.35;;;;;;;9.24;90.92;99633.88;5087060;28;20053;-83
2021/04/11 02:43:49;;;;;;;18.75;12.85;;;;;;;9.27;90.72;99643.44;5091479;28;20109;-82
2021/04/11 02:46:17;;;;;;;19.77;13.32;;;;;;;9.21;90.36;99634.03;5095310;28;20071;-83
2021/04/11 02:48:43;;;;;;;18.77;13.48;;;;;;;9.20;90.52;99642.03;5092862;28;20052;-83
2021/04/11 02:51:10;;;;;;;17.55;13.05;;;;;;;9.15;90.77;99637.00;5087917;28;20044;-83
2021/04/11 02:53:37;;;;;;;17.10;13.15;;;;;;;9.15;91.16;99634.34;5091783;28;20047;-82
2021/04/11 02:56:04;;;;;;;18.77;13.60;;;;;;;9.21;91.14;99641.97;5091017;28;20068;-83
2021/04/11 02:58:30;;;;;;;20.98;13.95;;;;;;;9.17;91.24;99632.50;5095454;28;20079;-83
2021/04/11 03:01:16;;;;;;;17.90;13.98;;;;;;;9.18;91.29;99634.19;5094922;28;20095;-84
2021/04/11 03:03:43;;;;;;;16.30;12.95;;;;;;;9.14;91.36;99632.66;5090806;28;20491;-83
2021/04/11 03:06:17;;;;;;;23.55;14.18;;;;;;;9.11;90.97;99619.63;5094543;28;20048;-82
2021/04/11 03:08:49;;;;;;;20.33;13.70;;;;;;;9.08;90.84;99628.56;5093948;28;20036;-83
2021/04/11 03:11:29;;;;;;;17.45;13.88;;;;;;;9.04;90.88;99627.00;5086510;28;20064;-82
2021/04/11 03:13:57;;;;;;;18.95;13.73;;;;;;;9.03;90.99;99619.16;5092907;28;20100;-83
2021/04/11 03:16:24;;;;;;;17.35;13.38;;;;;;;9.01;91.23;99615.75;5094868;28;20052;-83
2021/04/11 03:18:56;;;;;;;18.23;13.38;;;;;;;9.02;90.74;99620.94;5091904;28;20052;-83
2021/04/11 03:21:23;;;;;;;19.48;13.43;;;;;;;8.95;90.76;99621.38;5086812;28;20056;-83
2021/04/11 03:23:51;;;;;;;18.02;13.25;;;;;;;8.84;90.97;99613.13;5081814;28;20066;-83
2021/04/11 03:26:42;;;;;;;17.83;13.90;;;;;;;8.82;91.41;99629.06;5074490;28;20037;-84
2021/04/11 03:29:19;;;;;;;17.05;13.90;;;;;;;8.78;91.90;99623.09;5081363;28;20532;-83
2021/04/11 03:32:04;;;;;;;21.15;14.30;;;;;;;8.79;92.64;99624.81;5078973;28;20140;-82
2021/04/11 03:34:32;;;;;;;18.27;13.02;;;;;;;8.86;92.86;99627.97;5080553;28;20595;-83
2021/04/11 03:37:03;;;;;;;16.67;14.10;;;;;;;8.92;92.95;99630.31;5075419;28;20464;-85
2021/04/11 03:39:33;;;;;;;19.15;13.85;;;;;;;8.98;92.83;99631.75;5089514;28;20098;-83
2021/04/11 03:42:07;;;;;;;19.13;13.90;;;;;;;9.02;92.43;99626.22;5075323;28;20049;-83
2021/04/11 03:44:34;;;;;;;17.33;12.98;;;;;;;9.04;92.35;99626.16;5072776;28;20040;-83
2021/04/11 03:47:09;;;;;;;19.73;13.57;;;;;;;9.08;92.33;99628.56;5077007;28;20491;-83
2021/04/11 03:49:47;;;;;;;18.83;13.18;;;;;;;9.10;92.03;99617.91;5075811;28;20136;-82
2021/04/11 03:52:20;;;;;;;16.27;12.10;;;;;;;9.14;91.76;99622.09;5075916;28;20127;-82
2021/04/11 03:54:47;;;;;;;16.92;12.48;;;;;;;9.19;91.49;99633.25;5073805;28;20120;-82
2021/04/11 03:57:23;;;;;;;17.52;12.40;;;;;;;9.14;91.50;99616.81;5074241;28;20208;-82
2021/04/11 04:00:07;;;;;;;16.13;12.10;;;;;;;9.17;91.64;99621.06;5075202;28;20123;-83
2021/04/11 04:02:40;;;;;;;16.65;13.00;;;;;;;9.19;91.47;99625.34;5068436;28;20043;-83
2021/04/11 04:05:10;;;;;;;17.98;12.80;;;;;;;9.20;91.40;99628.84;5077389;28;20044;-83
2021/04/11 04:07:49;;;;;;;16.63;11.85;;;;;;;9.21;91.01;99628.75;5073285;28;20402;-83
2021/04/11 04:10:18;;;;;;;15.40;12.23;;;;;;;9.25;91.55;99635.59;5074080;28;20048;-83
2021/04/11 04:13:06;;;;;;;16.08;12.38;;;;;;;9.29;91.37;99634.47;5082007;28;20052;-83
2021/04/11 04:15:42;;;;;;;15.65;11.50;;;;;;;9.31;91.26;99626.47;5088011;28;20029;-82
2021/04/11 04:18:52;;;;;;;17.25;12.00;;;;;;;9.36;91.47;99633.22;5079552;28;20060;-83
2021/04/11 04:21:33;;;;;;;16.33;12.73;;;;;;;9.42;91.00;99638.19;5013892;28;20049;-83
2021/04/11 04:24:18;;;;;;;14.23;11.98;;;;;;;9.47;90.48;99643.19;5016916;28;20071;-83
2021/04/11 04:26:57;;;;;;;14.70;11.10;;;;;;;9.51;90.03;99644.75;5058912;28;20049;-83
2021/04/11 04:29:33;;;;;;;16.33;12.30;;;;;;;9.55;89.69;99642.78;5067217;28;20109;-83
2021/04/11 04:32:21;;;;;;;17.23;11.18;;;;;;;9.60;87.90;99633.66;5076999;28;20104;-83
2021/04/11 04:35:17;;;;;;;16.70;11.35;;;;;;;9.60;87.90;99631.00;5074759;28;20049;-83
2021/04/11 04:38:02;;;;;;;12.32;10.63;;;;;;;9.66;86.87;99629.81;5072199;28;20048;-84
2021/04/11 04:40:39;;;;;;;13.68;10.32;;;;;;;9.65;86.49;99618.41;5065556;28;20040;-84
2021/04/11 04:43:30;;;;;;;15.07;10.98;;;;;;;9.67;86.21;99623.59;5074202;28;20159;-84
2021/04/11 04:45:59;;;;;;;13.20;10.60;;;;;;;9.65;85.67;99622.84;5075645;28;20049;-84
2021/04/11 04:48:31;;;;;;;14.40;10.77;;;;;;;9.67;85.16;99629.75;5078139;28;20045;-84
2021/04/11 04:51:04;;;;;;;;;;;;;;;9.69;84.42;99627.03;5083522;28;20064;-83
2021/04/11 04:53:55;;;;;;;16.05;10.82;;;;;;;9.66;84.11;99628.03;5089641;28;19944;-84
2021/04/11 04:56:27;;;;;;;13.70;10.90;;;;;;;9.65;84.24;99633.41;5093605;28;20044;-83
2021/04/11 04:59:04;;;;;;;11.73;10.30;;;;;;;9.63;83.17;99625.56;5088112;28;20063;-82
2021/04/11 05:01:41;;;;;;;15.57;10.02;;;;;;;9.72;82.85;99629.50;5077111;28;20140;-84
2021/04/11 05:04:15;;;;;;;13.60;9.95;;;;;;;9.70;82.55;99618.16;5077297;28;20105;-83
2021/04/11 05:06:45;;;;;;;12.90;10.00;;;;;;;9.72;82.42;99626.84;5075142;28;20040;-85
2021/04/11 05:09:20;;;;;;;13.00;9.88;;;;;;;9.79;81.73;99637.00;5085538;28;20055;-83
2021/04/11 05:11:56;;;;;;;13.63;9.90;;;;;;;9.84;81.36;99634.09;5089111;28;20051;-82
2021/04/11 05:14:33;;;;;;;13.70;10.38;;;;;;;9.88;81.74;99626.84;5074301;28;20402;-85
2021/04/11 05:17:17;;;;;;;12.27;9.77;;;;;;;9.88;81.49;99630.34;5075368;28;20119;-84
2021/04/11 05:19:48;;;;;;;16.27;9.05;;;;;;;9.93;81.56;99623.00;5068880;28;20075;-84
2021/04/11 05:22:20;;;;;;;;;;;;;;;9.99;81.29;99617.38;5075071;28;20056;-83
2021/04/11 05:24:50;;;;;;;11.75;9.13;;;;;;;10.05;81.01;99617.03;5074967;28;19927;-84
2021/04/11 05:27:31;;;;;;;9.45;7.50;;;;;;;10.05;80.80;99610.88;5068401;28;20072;-84
2021/04/11 05:30:20;;;;;;;9.65;7.13;;;;;;;10.15;80.38;99617.34;5067597;28;20075;-84
2021/04/11 05:32:51;;;;;;;11.73;7.47;;;;;;;10.23;80.00;99617.78;5068669;28;20123;-83
2021/04/11 05:35:18;;;;;;;11.15;6.78;;;;;;;10.36;79.66;99628.53;5079551;28;20047;-83
2021/04/11 05:38:14;;;;;;;8.20;6.55;;;;;;;10.41;79.26;99610.56;5092168;28;20098;-84
2021/04/11 05:40:47;;;;;;;10.52;6.93;;;;;;;10.56;78.60;99625.53;5085463;28;20068;-84
2021/04/11 05:43:19;;;;;;;10.45;7.03;;;;;;;10.59;78.68;99619.22;5086203;28;20128;-84
2021/04/11 05:46:14;;;;;;;12.00;9.32;;;;;;;10.65;78.17;99632.94;5082916;28;20072;-84
2021/04/11 05:48:48;;;;;;;13.45;9.40;;;;;;;10.62;78.53;99630.47;5091784;28;20044;-84
2021/04/11 05:51:20;;;;;;;14.55;9.70;;;;;;;10.56;79.30;99628.19;5083527;28;20193;-84
2021/04/11 05:54:04;;;;;;;12.00;9.45;;;;;;;10.45;79.88;99633.25;5077114;28;20051;-84
2021/04/11 05:57:02;;;;;;;15.15;10.57;;;;;;;10.42;80.78;99638.72;5079467;28;20049;-84
2021/04/11 05:59:37;;;;;;;13.27;10.20;;;;;;;10.40;80.85;99640.59;5078572;28;20474;-84
2021/04/11 06:02:06;;;;;;;11.68;9.13;;;;;;;10.37;81.34;99644.31;5074628;28;20052;-84
2021/04/11 06:04:53;;;;;;;11.57;10.02;;;;;;;10.43;81.28;99643.09;5073439;28;20048;-84
2021/04/11 06:07:24;;;;;;;14.15;9.90;;;;;;;10.52;81.08;99637.28;5071989;28;20044;-84
2021/04/11 06:10:17;;;;;;;13.85;9.68;;;;;;;10.59;81.19;99643.91;5077648;28;20050;-84
2021/04/11 06:13:08;;;;;;;12.38;10.15;;;;;;;10.66;80.96;99644.41;5066003;28;20048;-84
2021/04/11 06:15:35;;;;;;;;;;;;;;;10.74;80.46;99648.28;5077064;28;20072;-83
2021/04/11 06:18:07;;;;;;;14.30;9.95;;;;;;;10.83;79.83;99645.09;5073525;28;19959;-83
2021/04/11 06:20:35;;;;;;;12.57;9.32;;;;;;;10.93;79.18;99650.69;5067836;28;20390;-83
2021/04/11 06:23:32;;;;;;;15.40;10.15;;;;;;;11.03;78.69;99653.63;5078142;28;20648;-83
2021/04/11 06:26:09;;;;;;;10.88;9.15;;;;;;;11.07;78.61;99649.84;5078869;28;20407;-83
2021/04/11 06:28:48;;;;;;;13.73;9.70;;;;;;;11.15;78.82;99656.41;5079961;28;20052;-83
2021/04/11 06:31:27;;;;;;;13.70;9.77;;;;;;;11.25;77.93;99648.72;5077359;28;20048;-83
2021/04/11 06:34:04;;;;;;;13.57;9.80;;;;;;;11.34;77.32;99656.09;5076779;28;20507;-83
2021/04/11 06:36:35;;;;;;;11.85;9.32;;;;;;;11.36;77.37;99650.72;5070736;28;20045;-84
2021/04/11 06:39:08;;;;;;;12.48;8.93;;;;;;;11.34;77.32;99652.59;5081800;28;20078;-83
2021/04/11 06:41:55;;;;;;;12.57;9.43;;;;;;;11.31;77.20;99658.97;5087097;28;20048;-83
2021/04/11 06:44:39;;;;;;;11.85;9.10;;;;;;;11.22;77.47;99664.81;5087242;28;20104;-83
2021/04/11 06:47:36;;;;;;;13.55;8.60;;;;;;;11.16;78.15;99657.25;5077410;28;20106;-84
2021/04/11 06:50:21;;;;;;;13.50;8.68;;;;;;;11.15;78.13;99661.69;5069452;28;20045;-82
2021/04/11 06:53:03;;;;;;;10.82;8.77;;;;;;;11.17;78.21;99672.22;5071916;28;20060;-84
2021/04/11 06:55:42;;;;;;;11.55;8.85;;;;;;;11.16;78.59;99666.06;5067657;28;20530;-82
2021/04/11 06:58:32;;;;;;;10.40;7.75;;;;;;;11.16;78.99;99658.09;5073297;28;20098;-83
2021/04/11 07:01:37;;;;;;;10.10;7.97;;;;;;;11.18;78.75;99658.00;5065444;28;20075;-83
2021/04/11 07:04:28;;;;;;;9.43;7.13;;;;;;;11.24;78.96;99652.31;5063849;28;20121;-83
2021/04/11 07:07:32;;;;;;;10.18;7.68;;;;;;;11.35;79.21;99655.16;5070328;28;20056;-82
2021/04/11 07:10:28;;;;;;;10.43;6.72;;;;;;;11.57;78.27;99658.19;5069852;28;20048;-83
2021/04/11 07:13:18;;;;;;;9.20;6.13;;;;;;;11.79;76.68;99649.78;5069683;28;20052;-83
2021/04/11 07:16:06;;;;;;;9.00;6.18;;;;;;;12.15;76.25;99654.50;5083208;28;20056;-83
2021/04/11 07:19:05;;;;;;;8.65;6.20;;;;;;;12.75;74.86;99653.19;5072030;28;20155;-83
2021/04/11 07:21:58;;;;;;;7.73;6.13;;;;;;;13.23;71.29;99655.16;5075286;28;20052;-83
2021/04/11 07:24:36;;;;;;;8.18;6.40;;;;;;;13.28;70.53;99649.53;5076087;28;20988;-84
2021/04/11 07:27:39;;;;;;;8.70;6.18;;;;;;;13.16;69.71;99640.59;5074353;28;20069;-83
2021/04/11 07:30:32;;;;;;;7.88;5.63;;;;;;;13.17;70.61;99647.63;5075180;28;20051;-84
2021/04/11 07:33:09;;;;;;;6.78;5.60;;;;;;;13.24;70.58;99653.34;5074468;28;20044;-83
2021/04/11 07:35:50;;;;;;;9.57;6.15;;;;;;;13.28;70.08;99657.50;5080335;28;20250;-84
2021/04/11 07:39:02;;;;;;;10.13;6.20;;;;;;;13.33;70.27;99658.03;5089386;28;20062;-83
2021/04/11 07:42:13;;;;;;;8.88;6.65;;;;;;;13.31;70.23;99663.47;5085212;28;20036;-83
2021/04/11 07:44:48;;;;;;;8.65;6.32;;;;;;;13.19;69.64;99668.78;5084893;28;20068;-83
2021/04/11 07:47:39;;;;;;;7.72;5.70;;;;;;;13.08;69.49;99671.28;5087219;28;20049;-83
2021/04/11 07:50:23;;;;;;;10.95;6.53;;;;;;;12.86;70.80;99658.63;5071707;28;20039;-83
2021/04/11 07:52:49;;;;;;;;;;;;;;;12.86;70.46;99664.78;5084025;28;20066;-83
2021/04/11 07:55:41;;;;;;;10.00;6.32;;;;;;;12.86;70.78;99651.50;5092104;28;19991;-83
2021/04/11 07:58:30;;;;;;;9.10;6.30;;;;;;;12.86;70.45;99640.88;5093121;28;20228;-83
2021/04/11 08:01:34;;;;;;;10.45;6.10;;;;;;;12.90;70.44;99642.38;5083949;28;20040;-83
2021/04/11 08:04:19;;;;;;;10.20;5.60;;;;;;;12.99;68.32;99647.06;5086716;28;20060;-84
2021/04/11 08:07:16;;;;;;;7.95;4.80;;;;;;;13.58;67.32;99650.03;5085507;28;20418;-85
2021/04/11 08:10:15;;;;;;;8.93;4.57;;;;;;;14.84;61.87;99634.50;5080364;28;20072;-85
2021/04/11 08:12:50;;;;;;;6.45;4.20;;;;;;;16.35;55.68;99631.28;5081755;28;20054;-84
2021/04/11 08:15:32;;;;;;;6.57;3.95;;;;;;;17.67;52.38;99643.16;5089397;28;20032;-83
2021/04/11 08:18:17;;;;;;;5.93;3.75;;;;;;;18.76;49.25;99648.44;5090821;28;20037;-84
2021/04/11 08:21:32;;;;;;;8.35;4.18;;;;;;;20.05;45.74;99645.09;5091025;28;20039;-83
2021/04/11 08:24:34;;;;;;;6.65;4.10;;;;;;;20.60;43.81;99640.50;5023934;28;20073;-83
2021/04/11 08:27:26;;;;;;;6.07;3.70;;;;;;;21.01;43.19;99644.38;4982620;28;20034;-88
2021/04/11 08:30:26;;;;;;;4.65;3.08;;;;;;;20.33;42.56;99652.13;5086446;28;20056;-84
2021/04/11 08:33:14;;;;;;;5.50;3.65;;;;;;;19.39;45.11;99653.25;5084021;28;20049;-81
2021/04/11 08:36:30;;;;;;;4.57;3.13;;;;;;;18.99;45.73;99664.25;5077867;28;20040;-86
2021/04/11 08:39:14;;;;;;;4.82;3.70;;;;;;;18.18;47.75;99656.41;5066614;28;20048;-86
2021/04/11 08:42:25;;;;;;;5.63;3.53;;;;;;;17.85;49.43;99656.75;5071670;28;20055;-84
2021/04/11 08:45:46;;;;;;;5.30;3.55;;;;;;;17.74;50.53;99657.72;5074276;28;20049;-84
2021/04/11 08:48:45;;;;;;;4.65;3.40;;;;;;;17.80;50.09;99656.31;5084198;28;20084;-84
2021/04/11 08:51:22;;;;;;;11.07;4.57;;;;;;;17.77;50.20;99657.44;5087302;28;20068;-85
2021/04/11 08:54:07;;;;;;;6.55;3.42;;;;;;;17.64;49.51;99659.50;5084160;28;20041;-83
2021/04/11 08:56:49;;;;;;;6.03;3.85;;;;;;;17.33;51.45;99655.94;5087738;28;20044;-84
2021/04/11 08:59:41;;;;;;;6.47;3.58;;;;;;;17.11;51.98;99650.75;5084878;28;20049;-81
2021/04/11 09:02:26;;;;;;;5.95;3.22;;;;;;;16.88;53.51;99642.00;5081869;28;20078;-82
2021/04/11 09:05:19;;;;;;;5.28;3.55;;;;;;;16.81;52.48;99639.00;5072871;28;22148;-83
2021/04/11 09:07:58;;;;;;;7.18;3.72;;;;;;;16.69;53.35;99650.72;5070354;28;20056;-83
2021/04/11 09:11:02;;;;;;;5.28;3.70;;;;;;;16.62;54.01;99648.66;5075901;28;20575;-83
2021/04/11 09:13:55;;;;;;;5.85;4.22;;;;;;;16.55;54.13;99652.81;5078248;28;20060;-83
2021/04/11 09:16:44;;;;;;;6.65;4.38;;;;;;;16.47;54.88;99640.97;5092589;28;20040;-84
2021/04/11 09:19:25;;;;;;;5.70;4.10;;;;;;;16.49;55.15;99636.34;5084434;28;20044;-84
2021/04/11 09:22:08;;;;;;;9.75;4.03;;;;;;;16.63;54.13;99634.38;5071834;28;20048;-86
2021/04/11 09:25:01;;;;;;;5.65;3.80;;;;;;;16.73;53.99;99632.59;5076777;28;20043;-86
2021/04/11 09:28:05;;;;;;;5.90;3.85;;;;;;;16.89;53.30;99632.16;5084284;28;20056;-86
2021/04/11 09:31:05;;;;;;;5.55;3.63;;;;;;;17.07;52.67;99641.28;5083596;28;20104;-86
2021/04/11 09:33:46;;;;;;;5.18;3.20;;;;;;;17.21;51.56;99640.94;5089678;28;20068;-84
2021/04/11 09:36:36;;;;;;;5.65;3.40;;;;;;;17.42;51.41;99641.75;5074173;28;20044;-85
2021/04/11 09:39:37;;;;;;;5.20;3.10;;;;;;;17.77;49.28;99637.84;5057914;28;20106;-84
2021/04/11 09:42:37;;;;;;;5.10;2.95;;;;;;;17.87;49.13;99639.56;5062867;28;20048;-85
2021/04/11 09:45:40;;;;;;;5.05;2.92;;;;;;;17.74;49.81;99644.31;5067354;28;20136;-85
2021/04/11 09:48:51;;;;;;;3.85;2.55;;;;;;;17.37;50.17;99643.13;5068941;28;20048;-85
2021/04/11 09:51:51;;;;;;;4.78;2.95;;;;;;;17.15;50.76;99650.38;5072023;28;20458;-84
2021/04/11 09:54:20;;;;;;;6.47;2.95;;;;;;;17.15;51.30;99644.16;5064405;28;20070;-85
2021/04/11 09:57:35;;;;;;;5.10;3.08;;;;;;;17.18;50.76;99643.88;5061612;28;20036;-85
2021/04/11 10:00:11;;;;;;;4.05;2.50;;;;;;;17.25;51.03;99636.19;5073641;28;20049;-86
2021/04/11 10:03:07;;;;;;;3.85;2.60;;;;;;;17.33;50.54;99634.53;5073019;28;20086;-85
2021/04/11 10:06:01;;;;;;;3.45;2.47;;;;;;;17.16;50.96;99633.31;5071268;28;20041;-85
2021/04/11 10:08:54;;;;;;;3.95;2.65;;;;;;;16.94;51.26;99636.13;5033939;28;20041;-85
2021/04/11 10:11:29;;;;;;;4.95;2.85;;;;;;;16.82;52.39;99640.72;5069700;28;20048;-83
2021/04/11 10:14:18;;;;;;;3.78;2.53;;;;;;;16.97;52.30;99638.56;5081233;28;20052;-84
2021/04/11 10:17:05;;;;;;;5.10;2.72;;;;;;;16.98;52.25;99644.75;5079642;28;20045;-83
2021/04/11 10:19:49;;;;;;;4.95;2.40;;;;;;;16.84;52.12;99635.25;5078064;28;20041;-85
2021/04/11 10:22:19;;;;;;;4.40;2.30;;;;;;;16.77;52.43;99640.25;5078113;28;20059;-83
2021/04/11 10:24:53;;;;;;;7.38;2.95;;;;;;;16.57;52.35;99649.03;5081332;28;20065;-85
2021/04/11 10:27:32;;;;;;;5.43;2.67;;;;;;;16.36;53.24;99649.03;5079974;28;20029;-85
2021/04/11 10:30:03;;;;;;;5.85;3.35;;;;;;;16.13;54.13;99642.03;5084529;28;20043;-85
2021/04/11 10:32:54;;;;;;;3.72;2.90;;;;;;;15.90;54.87;99651.91;5085844;28;20104;-83
2021/04/11 10:35:32;;;;;;;5.45;2.92;;;;;;;15.92;54.96;99649.13;5088804;28;20032;-83
2021/04/11 10:38:38;;;;;;;4.53;2.70;;;;;;;16.02;54.86;99639.41;5080934;28;20057;-85
2021/04/11 10:41:28;;;;;;;4.32;2.70;;;;;;;16.12;54.84;99629.66;5086183;28;20049;-84
2021/04/11 10:44:30;;;;;;;5.63;2.80;;;;;;;16.24;54.98;99642.00;5087596;28;20047;-84
2021/04/11 10:47:24;;;;;;;7.65;3.15;;;;;;;16.24;54.09;99642.00;5096618;28;20040;-84
2021/04/11 10:50:12;;;;;;;4.22;2.85;;;;;;;16.18;54.29;99645.19;5081789;28;20060;-84
2021/04/11 10:52:44;;;;;;;5.85;2.80;;;;;;;16.00;54.92;99649.34;5088431;28;20360;-83
2021/04/11 10:55:27;;;;;;;4.57;3.10;;;;;;;15.73;55.87;99647.94;5073787;28;20045;-83
2021/04/11 10:58:14;;;;;;;4.97;2.80;;;;;;;15.53;56.77;99647.78;5071575;28;20150;-83
2021/04/11 11:00:48;;;;;;;6.20;3.20;;;;;;;15.37;57.24;99646.34;5071710;28;20429;-84
2021/04/11 11:03:34;;;;;;;5.90;3.45;;;;;;;15.28;57.60;99635.53;5071877;28;21476;-83
2021/04/11 11:06:23;;;;;;;3.08;2.53;;;;;;;15.26;57.75;99634.81;5064341;28;20059;-84
2021/04/11 11:09:06;;;;;;;7.25;2.67;;;;;;;15.42;58.09;99637.97;5066635;28;20126;-83
2021/04/11 11:12:11;;;;;;;5.07;3.15;;;;;;;15.70;56.66;99640.19;5062172;28;20048;-84
2021/04/11 11:14:46;;;;;;;7.05;2.33;;;;;;;15.92;56.17;99643.78;5068675;28;20076;-84
2021/04/11 11:17:23;;;;;;;7.55;2.95;;;;;;;15.95;56.27;99638.19;5068415;28;20608;-84
2021/04/11 11:20:29;;;;;;;4.95;2.08;;;;;;;15.93;56.27;99650.81;5061797;28;20053;-84
2021/04/11 11:23:20;;;;;;;4.75;2.10;;;;;;;15.86;56.73;99655.81;5076803;28;20036;-84
2021/04/11 11:25:50;;;;;;;5.07;2.83;;;;;;;15.83;56.95;99660.56;5085039;28;20076;-83
2021/04/11 11:28:54;;;;;;;4.65;2.63;;;;;;;15.73;57.33;99653.28;5079573;28;20505;-84
2021/04/11 11:31:39;;;;;;;6.22;2.92;;;;;;;15.60;57.18;99660.56;5079010;28;20067;-84
2021/04/11 11:34:21;;;;;;;5.38;2.53;;;;;;;15.51;58.66;99671.09;5070793;28;20055;-84
2021/04/11 11:37:11;;;;;;;5.68;2.70;;;;;;;15.35;59.31;99672.28;5072375;28;20104;-84
2021/04/11 11:39:52;;;;;;;4.35;2.80;;;;;;;15.11;60.28;99682.16;5067752;28;20842;-84
2021/04/11 11:42:41;;;;;;;4.18;3.35;;;;;;;14.91;60.71;99681.06;5065019;28;20064;-84
2021/04/11 11:45:09;;;;;;;;;;;;;;;14.82;60.93;99679.06;5065503;28;20350;-85
2021/04/11 11:48:16;;;;;;;5.45;3.70;;;;;;;14.63;62.44;99690.28;5059605;28;19931;-84
2021/04/11 11:51:08;;;;;;;6.18;3.40;;;;;;;14.47;62.88;99700.38;5072972;28;20053;-84
2021/04/11 11:53:41;;;;;;;7.18;3.05;;;;;;;14.32;63.33;99696.16;5067671;28;20048;-84
2021/04/11 11:56:23;;;;;;;5.70;3.15;;;;;;;14.21;63.11;99704.91;5066222;28;20679;-84
2021/04/11 11:59:02;;;;;;;5.88;3.05;;;;;;;14.07;64.43;99705.06;5077713;28;20074;-84
2021/04/11 12:01:38;;;;;;;3.67;2.70;;;;;;;13.96;64.62;99705.00;5072275;28;20052;-83
2021/04/11 12:04:14;;;;;;;3.95;2.90;;;;;;;13.89;65.02;99711.69;5060067;28;20468;-83
2021/04/11 12:06:52;;;;;;;3.95;2.67;;;;;;;13.81;65.27;99714.06;5071382;28;20068;-84
2021/04/11 12:09:24;;;;;;;3.63;2.42;;;;;;;13.69;65.54;99726.44;5083775;28;20105;-83
2021/04/11 12:12:00;;;;;;;4.32;2.75;;;;;;;13.53;66.06;99720.50;5080330;28;20083;-82
2021/04/11 12:14:57;;;;;;;5.18;3.13;;;;;;;13.46;66.51;99725.38;5091087;28;20037;-84
2021/04/11 12:17:48;;;;;;;6.40;2.90;;;;;;;13.45;67.02;99725.47;5084431;28;20052;-83
2021/04/11 12:20:44;;;;;;;3.72;3.13;;;;;;;13.45;66.93;99734.31;5080493;28;20482;-84
2021/04/11 12:23:23;;;;;;;4.82;2.97;;;;;;;13.43;66.54;99732.69;5069935;28;20092;-83
2021/04/11 12:26:06;;;;;;;3.90;2.85;;;;;;;13.34;66.96;99737.72;5061749;28;20068;-83
2021/04/11 12:28:32;;;;;;;4.32;2.70;;;;;;;13.28;67.33;99746.09;5070295;28;20053;-82
2021/04/11 12:31:23;;;;;;;3.58;3.00;;;;;;;13.18;67.43;99755.66;5075608;28;20067;-83